Time;durP1;ratioP1;P1;durP2;ratioP2;P2;SDS_P1;SDS_P2;PMS_P1;PMS_P2;Temp;Humidity;BMP_temperature;BMP_pressure;BME280_temperature;BME280_humidity;BME280_pressure;Samples;Min_cycle;Max_cycle;Signal;HPM_P1;HPM_P2
2022/04/15 00:00:22;;;;;;;16.80;6.03;;;;;;;;;;5012264;28;20026;-73
2022/04/15 00:02:48;;;;;;;14.15;5.53;;;;;;;;;;5012517;28;20075;-75
2022/04/15 00:05:34;;;;;;;13.90;5.97;;;;;;;;;;5011121;28;20403;-74
2022/04/15 00:08:00;;;;;;;14.90;6.53;;;;;;;;;;5012498;28;20495;-74
2022/04/15 00:10:28;;;;;;;19.35;7.18;;;;;;;;;;5013983;28;20048;-74
2022/04/15 00:12:54;;;;;;;17.92;7.30;;;;;;;;;;5016435;28;20468;-73
2022/04/15 00:15:20;;;;;;;18.83;7.55;;;;;;;;;;5015620;28;20026;-75
2022/04/15 00:17:46;;;;;;;17.17;7.15;;;;;;;;;;5020608;28;20047;-74
2022/04/15 00:20:13;;;;;;;20.38;7.60;;;;;;;;;;5027421;28;20025;-74
2022/04/15 00:22:39;;;;;;;20.40;7.57;;;;;;;;;;5028548;28;20017;-75
2022/04/15 00:25:06;;;;;;;22.10;8.93;;;;;;;;;;5027876;28;20029;-75
2022/04/15 00:27:32;;;;;;;15.38;7.47;;;;;;;;;;5017244;28;20109;-75
2022/04/15 00:29:58;;;;;;;16.27;8.07;;;;;;;;;;5016307;28;20520;-75
2022/04/15 00:32:23;;;;;;;17.05;7.75;;;;;;;;;;5015957;28;20474;-74
2022/04/15 00:34:49;;;;;;;22.73;8.60;;;;;;;;;;5015980;28;20498;-74
2022/04/15 00:37:17;;;;;;;15.07;7.35;;;;;;;;;;5015921;28;20474;-75
2022/04/15 00:39:45;;;;;;;18.33;7.60;;;;;;;;;;5016108;28;20029;-74
2022/04/15 00:42:11;;;;;;;15.88;7.65;;;;;;;;;;5015914;28;20490;-75
2022/04/15 00:44:37;;;;;;;23.10;8.05;;;;;;;;;;5015727;28;20058;-74
2022/04/15 00:47:29;;;;;;;14.45;7.70;;;;;;;;;;5015347;28;20437;-74
2022/04/15 00:49:56;;;;;;;17.92;7.38;;;;;;;;;;5014454;28;20038;-74
2022/04/15 00:52:23;;;;;;;17.30;7.07;;;;;;;;;;5015656;28;20065;-74
2022/04/15 00:54:52;;;;;;;15.60;7.35;;;;;;;;;;5015732;28;20449;-74
2022/04/15 00:57:22;;;;;;;16.55;7.28;;;;;;;;;;5019681;28;20030;-74
2022/04/15 00:59:50;;;;;;;19.70;7.25;;;;;;;;;;5027540;28;20033;-74
2022/04/15 01:02:17;;;;;;;15.65;6.40;;;;;;;;;;5027767;28;20064;-73
2022/04/15 01:04:44;;;;;;;17.52;6.07;;;;;;;;;;5027413;28;20364;-73
2022/04/15 01:07:11;;;;;;;13.98;5.78;;;;;;;;;;5016035;28;20022;-74
2022/04/15 01:09:42;;;;;;;16.17;5.57;;;;;;;;;;5015248;28;20026;-74
2022/04/15 01:12:09;;;;;;;14.90;5.53;;;;;;;;;;5015880;28;20044;-73
2022/04/15 01:14:36;;;;;;;16.35;5.95;;;;;;;;;;5015218;28;20036;-74
2022/04/15 01:17:02;;;;;;;12.10;5.50;;;;;;;;;;5014814;28;20109;-75
2022/04/15 01:19:29;;;;;;;14.18;5.60;;;;;;;;;;5014909;28;20107;-75
2022/04/15 01:21:56;;;;;;;21.17;5.60;;;;;;;;;;5014119;28;20049;-75
2022/04/15 01:24:22;;;;;;;15.75;6.10;;;;;;;;;;5015065;28;20029;-73
2022/04/15 01:26:48;;;;;;;15.18;5.65;;;;;;;;;;5014947;28;20033;-75
2022/04/15 01:29:15;;;;;;;17.30;6.22;;;;;;;;;;5015030;28;20064;-73
2022/04/15 01:31:41;;;;;;;14.98;6.68;;;;;;;;;;5014752;28;20111;-74
2022/04/15 01:34:07;;;;;;;23.17;6.65;;;;;;;;;;5014781;28;20110;-74
2022/04/15 01:36:33;;;;;;;15.18;8.50;;;;;;;;;;5014817;28;20026;-73
2022/04/15 01:39:00;;;;;;;17.20;7.90;;;;;;;;;;5014654;28;20025;-74
2022/04/15 01:41:26;;;;;;;20.02;8.52;;;;;;;;;;5014734;28;20076;-75
2022/04/15 01:43:52;;;;;;;25.15;8.63;;;;;;;;;;5014872;28;20030;-74
2022/04/15 01:46:18;;;;;;;20.33;8.48;;;;;;;;;;5017321;28;20487;-74
2022/04/15 01:48:44;;;;;;;22.27;9.27;;;;;;;;;;5017249;28;20076;-73
2022/04/15 01:51:10;;;;;;;18.73;8.50;;;;;;;;;;5014902;28;20034;-73
2022/04/15 01:53:36;;;;;;;21.98;8.63;;;;;;;;;;5014689;28;20029;-74
2022/04/15 01:56:02;;;;;;;20.05;10.38;;;;;;;;;;5014331;28;20069;-75
2022/04/15 01:58:28;;;;;;;19.58;9.98;;;;;;;;;;5014436;28;20026;-75
2022/04/15 02:00:54;;;;;;;25.13;10.63;;;;;;;;;;5013572;28;20022;-74
2022/04/15 02:03:19;;;;;;;37.60;11.73;;;;;;;;;;5014253;28;20018;-75
2022/04/15 02:05:45;;;;;;;27.23;11.40;;;;;;;;;;5014415;28;20483;-74
2022/04/15 02:08:11;;;;;;;24.67;11.07;;;;;;;;;;5014549;28;20025;-74
2022/04/15 02:10:37;;;;;;;21.35;10.80;;;;;;;;;;5014022;28;20042;-74
2022/04/15 02:13:03;;;;;;;30.15;11.45;;;;;;;;;;5014473;28;20075;-74
2022/04/15 02:15:29;;;;;;;21.40;10.75;;;;;;;;;;5014223;28;20105;-73
2022/04/15 02:17:55;;;;;;;26.42;11.38;;;;;;;;;;5014779;28;20340;-75
2022/04/15 02:20:21;;;;;;;23.58;11.40;;;;;;;;;;5018360;28;20026;-74
2022/04/15 02:22:47;;;;;;;33.13;12.65;;;;;;;;;;5022956;28;20061;-74
2022/04/15 02:25:13;;;;;;;25.73;11.00;;;;;;;;;;5023223;28;20042;-74
2022/04/15 02:27:39;;;;;;;36.15;12.48;;;;;;;;;;5019114;28;20026;-74
2022/04/15 02:30:05;;;;;;;29.85;12.60;;;;;;;;;;5013654;28;20109;-73
2022/04/15 02:32:31;;;;;;;27.45;12.07;;;;;;;;;;5013854;28;20113;-73
2022/04/15 02:34:57;;;;;;;24.23;12.13;;;;;;;;;;5012717;28;20486;-73
2022/04/15 02:37:23;;;;;;;28.65;12.52;;;;;;;;;;5013108;28;20041;-75
2022/04/15 02:39:50;;;;;;;20.80;11.80;;;;;;;;;;5026798;28;20141;-74
2022/04/15 02:42:16;;;;;;;26.73;12.27;;;;;;;;;;5033319;28;20053;-75
2022/04/15 02:44:42;;;;;;;19.02;10.88;;;;;;;;;;5033171;28;20026;-75
2022/04/15 02:47:08;;;;;;;21.73;11.88;;;;;;;;;;5033161;28;20029;-74
2022/04/15 02:49:34;;;;;;;23.13;10.75;;;;;;;;;;5031765;28;20089;-74
2022/04/15 02:52:00;;;;;;;20.08;11.48;;;;;;;;;;5033393;28;20013;-76
2022/04/15 02:54:26;;;;;;;23.63;11.27;;;;;;;;;;5035697;28;20056;-75
2022/04/15 02:56:52;;;;;;;24.17;11.85;;;;;;;;;;5033694;28;20065;-75
2022/04/15 02:59:20;;;;;;;21.33;10.20;;;;;;;;;;5032826;28;20029;-75
2022/04/15 03:01:48;;;;;;;22.70;11.48;;;;;;;;;;5033284;28;20390;-74
2022/04/15 03:04:14;;;;;;;20.65;11.10;;;;;;;;;;5032877;28;20489;-75
2022/04/15 03:06:40;;;;;;;18.27;11.00;;;;;;;;;;5032450;28;20034;-74
2022/04/15 03:09:06;;;;;;;19.48;10.98;;;;;;;;;;5032525;28;20493;-74
2022/04/15 03:11:32;;;;;;;19.60;11.15;;;;;;;;;;5056136;22;20041;-77
2022/04/15 03:13:58;;;;;;;21.90;11.73;;;;;;;;;;5026728;28;20032;-76
2022/04/15 03:16:24;;;;;;;19.20;11.10;;;;;;;;;;5013280;28;20034;-77
2022/04/15 03:18:50;;;;;;;22.45;12.07;;;;;;;;;;5028431;28;20025;-77
2022/04/15 03:21:16;;;;;;;25.40;12.48;;;;;;;;;;5013095;28;20014;-76
2022/04/15 03:23:42;;;;;;;26.42;12.43;;;;;;;;;;5013615;28;20026;-76
2022/04/15 03:26:08;;;;;;;24.38;13.18;;;;;;;;;;5014735;28;20095;-76
2022/04/15 03:28:34;;;;;;;24.23;13.57;;;;;;;;;;5015336;28;20068;-77
2022/04/15 03:31:00;;;;;;;23.35;13.27;;;;;;;;;;5014743;28;20026;-76
2022/04/15 03:33:28;;;;;;;21.38;12.80;;;;;;;;;;5013136;28;20046;-76
2022/04/15 03:35:54;;;;;;;29.98;14.13;;;;;;;;;;5014191;28;20075;-77
2022/04/15 03:38:19;;;;;;;30.30;14.45;;;;;;;;;;5017956;28;20041;-77
2022/04/15 03:40:45;;;;;;;27.55;14.65;;;;;;;;;;5014449;28;20344;-77
2022/04/15 03:43:11;;;;;;;31.48;15.60;;;;;;;;;;5020087;28;20475;-76
2022/04/15 03:45:37;;;;;;;30.02;14.75;;;;;;;;;;5018640;28;20087;-76
2022/04/15 03:48:03;;;;;;;31.73;16.15;;;;;;;;;;5016182;28;20030;-76
2022/04/15 03:50:29;;;;;;;40.08;15.73;;;;;;;;;;5019312;28;20367;-76
2022/04/15 03:52:55;;;;;;;32.92;16.52;;;;;;;;;;5013635;28;20084;-75
2022/04/15 03:55:22;;;;;;;34.92;17.35;;;;;;;;;;5018061;28;20030;-76
2022/04/15 03:57:48;;;;;;;29.35;16.77;;;;;;;;;;5017906;28;20044;-77
2022/04/15 04:00:15;;;;;;;36.72;17.60;;;;;;;;;;5018271;28;20033;-75
2022/04/15 04:02:45;;;;;;;33.40;17.40;;;;;;;;;;5022452;28;20029;-77
2022/04/15 04:05:13;;;;;;;39.63;19.05;;;;;;;;;;5011667;28;20036;-74
2022/04/15 04:07:39;;;;;;;38.05;19.75;;;;;;;;;;5014701;28;20048;-75
2022/04/15 04:10:05;;;;;;;40.60;19.67;;;;;;;;;;5015867;28;20030;-78
2022/04/15 04:12:34;;;;;;;39.25;19.10;;;;;;;;;;5012877;28;20507;-76
2022/04/15 04:15:05;;;;;;;41.10;20.25;;;;;;;;;;5019011;28;20491;-76
2022/04/15 04:17:31;;;;;;;44.17;19.92;;;;;;;;;;5012769;28;20026;-77
2022/04/15 04:19:57;;;;;;;36.08;20.05;;;;;;;;;;5013958;28;20049;-76
2022/04/15 04:22:29;;;;;;;43.38;21.13;;;;;;;;;;5013799;28;20045;-77
2022/04/15 04:24:55;;;;;;;40.17;20.02;;;;;;;;;;5014225;28;20033;-76
2022/04/15 04:27:21;;;;;;;44.15;22.40;;;;;;;;;;5013964;28;20471;-75
2022/04/15 04:29:48;;;;;;;41.38;22.27;;;;;;;;;;5013014;28;20029;-75
2022/04/15 04:32:15;;;;;;;49.45;23.20;;;;;;;;;;5015707;28;20537;-76
2022/04/15 04:34:41;;;;;;;42.10;22.98;;;;;;;;;;5012815;28;20033;-76
2022/04/15 04:37:07;;;;;;;50.00;25.52;;;;;;;;;;5010785;28;20064;-76
2022/04/15 04:39:33;;;;;;;49.15;25.77;;;;;;;;;;5012273;28;20026;-75
2022/04/15 04:41:59;;;;;;;46.92;24.95;;;;;;;;;;5012496;28;20037;-76
2022/04/15 04:44:25;;;;;;;46.30;25.33;;;;;;;;;;5011935;28;20018;-76
2022/04/15 04:46:52;;;;;;;45.05;24.50;;;;;;;;;;5011913;28;20116;-78
2022/04/15 04:49:18;;;;;;;50.33;24.55;;;;;;;;;;5012744;28;20033;-76
2022/04/15 04:51:44;;;;;;;48.33;23.30;;;;;;;;;;5014630;28;20037;-75
2022/04/15 04:54:10;;;;;;;49.13;25.70;;;;;;;;;;5018166;28;20037;-76
2022/04/15 04:56:36;;;;;;;56.65;27.42;;;;;;;;;;5016960;28;20022;-76
2022/04/15 04:59:02;;;;;;;49.55;25.65;;;;;;;;;;5023137;28;20021;-77
2022/04/15 05:01:28;;;;;;;60.58;26.70;;;;;;;;;;5023492;28;20025;-76
2022/04/15 05:03:54;;;;;;;46.63;25.60;;;;;;;;;;5021811;28;20022;-75
2022/04/15 05:06:20;;;;;;;53.75;26.73;;;;;;;;;;5021192;28;20034;-74
2022/04/15 05:08:46;;;;;;;48.10;27.65;;;;;;;;;;5021507;28;20029;-74
2022/04/15 05:11:12;;;;;;;46.83;26.25;;;;;;;;;;5020264;28;20041;-75
2022/04/15 05:13:38;;;;;;;54.45;27.25;;;;;;;;;;5020208;28;20110;-75
2022/04/15 05:16:04;;;;;;;60.53;29.08;;;;;;;;;;5020920;28;20065;-76
2022/04/15 05:18:30;;;;;;;59.08;29.48;;;;;;;;;;5019302;28;20064;-77
2022/04/15 05:20:56;;;;;;;60.10;28.75;;;;;;;;;;5018681;28;20100;-77
2022/04/15 05:23:22;;;;;;;59.47;29.58;;;;;;;;;;5016892;28;20018;-78
2022/04/15 05:25:48;;;;;;;65.18;30.58;;;;;;;;;;5015852;28;20041;-77
2022/04/15 05:28:14;;;;;;;73.25;33.17;;;;;;;;;;5020462;28;20033;-77
2022/04/15 05:30:40;;;;;;;78.07;34.22;;;;;;;;;;5023719;28;20036;-77
2022/04/15 05:33:06;;;;;;;67.20;32.58;;;;;;;;;;5029542;28;20040;-75
2022/04/15 05:35:32;;;;;;;74.90;33.63;;;;;;;;;;5026251;28;20029;-77
2022/04/15 05:37:58;;;;;;;74.65;33.22;;;;;;;;;;5016034;28;20080;-76
2022/04/15 05:40:27;;;;;;;67.00;31.60;;;;;;;;;;5015326;28;20100;-77
2022/04/15 05:42:53;;;;;;;77.18;32.58;;;;;;;;;;5016172;28;20494;-76
2022/04/15 05:45:19;;;;;;;75.55;30.65;;;;;;;;;;5015486;28;20045;-77
2022/04/15 05:47:45;;;;;;;74.90;33.33;;;;;;;;;;5017699;28;20221;-76
2022/04/15 05:50:11;;;;;;;73.20;31.45;;;;;;;;;;5020015;28;20313;-76
2022/04/15 05:52:37;;;;;;;73.75;30.63;;;;;;;;;;5015873;28;20033;-78
2022/04/15 05:55:03;;;;;;;68.47;28.83;;;;;;;;;;5016032;28;20026;-76
2022/04/15 05:57:29;;;;;;;75.30;29.08;;;;;;;;;;5014981;28;20057;-77
2022/04/15 05:59:55;;;;;;;72.80;29.30;;;;;;;;;;5015163;28;20022;-77
2022/04/15 06:02:21;;;;;;;72.43;29.23;;;;;;;;;;5015955;28;20108;-77
2022/04/15 06:04:48;;;;;;;77.95;27.63;;;;;;;;;;5015452;28;20022;-77
2022/04/15 06:07:14;;;;;;;72.43;27.73;;;;;;;;;;5021283;28;20021;-77
2022/04/15 06:09:40;;;;;;;74.97;29.17;;;;;;;;;;5017529;28;20555;-76
2022/04/15 06:12:06;;;;;;;68.70;27.60;;;;;;;;;;5019548;28;20054;-75
2022/04/15 06:14:35;;;;;;;75.30;27.60;;;;;;;;;;5018432;28;20053;-76
2022/04/15 06:17:01;;;;;;;73.88;30.05;;;;;;;;;;5015329;28;20095;-76
2022/04/15 06:19:27;;;;;;;79.68;32.00;;;;;;;;;;5016852;28;20518;-76
2022/04/15 06:21:53;;;;;;;95.15;38.17;;;;;;;;;;5020897;28;20021;-77
2022/04/15 06:24:19;;;;;;;124.55;46.58;;;;;;;;;;5018627;28;20497;-79
2022/04/15 06:26:46;;;;;;;110.38;45.17;;;;;;;;;;5016765;28;20113;-76
2022/04/15 06:29:11;;;;;;;108.53;42.95;;;;;;;;;;5015889;28;20072;-78
2022/04/15 06:31:37;;;;;;;114.75;45.25;;;;;;;;;;5015151;28;20037;-76
2022/04/15 06:34:03;;;;;;;96.93;37.63;;;;;;;;;;5018500;28;20045;-80
2022/04/15 06:36:29;;;;;;;96.45;37.00;;;;;;;;;;5019160;28;20061;-78
2022/04/15 06:38:56;;;;;;;98.68;40.22;;;;;;;;;;5017307;28;20022;-77
2022/04/15 06:41:21;;;;;;;111.82;45.10;;;;;;;;;;5016032;28;20072;-77
2022/04/15 06:43:47;;;;;;;89.00;39.13;;;;;;;;;;5018359;28;20026;-77
2022/04/15 06:46:13;;;;;;;85.72;36.72;;;;;;;;;;5017248;28;20151;-78
2022/04/15 06:48:39;;;;;;;98.97;40.90;;;;;;;;;;5017944;28;20033;-76
2022/04/15 06:51:05;;;;;;;115.40;48.95;;;;;;;;;;5020786;28;20085;-79
2022/04/15 06:53:31;;;;;;;87.25;39.08;;;;;;;;;;5018444;28;20018;-77
2022/04/15 06:55:57;;;;;;;84.97;36.35;;;;;;;;;;5014284;28;20140;-79
2022/04/15 06:58:23;;;;;;;76.80;34.38;;;;;;;;;;5018780;28;20105;-79
2022/04/15 07:00:52;;;;;;;79.30;35.75;;;;;;;;;;5024680;28;20025;-78
2022/04/15 07:03:18;;;;;;;103.80;46.67;;;;;;;;;;5031485;28;20026;-77
2022/04/15 07:05:44;;;;;;;114.22;51.13;;;;;;;;;;5028986;28;20013;-77
2022/04/15 07:08:11;;;;;;;115.82;48.85;;;;;;;;;;5026160;28;20033;-75
2022/04/15 07:10:40;;;;;;;104.00;46.83;;;;;;;;;;5016991;28;20022;-77
2022/04/15 07:13:06;;;;;;;113.32;48.78;;;;;;;;;;5027228;28;20036;-78
2022/04/15 07:15:32;;;;;;;103.65;45.00;;;;;;;;;;5021212;28;20030;-78
2022/04/15 07:18:03;;;;;;;97.25;43.40;;;;;;;;;;5022441;28;20028;-82
2022/04/15 07:20:29;;;;;;;86.95;40.55;;;;;;;;;;5015077;28;20117;-81
2022/04/15 07:22:56;;;;;;;72.93;33.85;;;;;;;;;;5015325;28;20112;-78
2022/04/15 07:25:22;;;;;;;65.15;31.00;;;;;;;;;;5016180;28;20124;-77
2022/04/15 07:27:48;;;;;;;78.85;36.50;;;;;;;;;;5011506;28;20030;-77
2022/04/15 07:30:14;;;;;;;81.55;38.38;;;;;;;;;;4996650;28;20034;-76
2022/04/15 07:32:40;;;;;;;77.07;35.13;;;;;;;;;;4993954;28;20026;-74
2022/04/15 07:35:06;;;;;;;62.75;28.05;;;;;;;;;;4995484;28;20034;-76
2022/04/15 07:37:32;;;;;;;47.20;23.42;;;;;;;;;;5006203;28;20014;-77
2022/04/15 07:39:58;;;;;;;44.15;21.30;;;;;;;;;;5006796;28;20027;-76
2022/04/15 07:42:24;;;;;;;36.63;19.50;;;;;;;;;;5002790;28;20022;-77
2022/04/15 07:44:50;;;;;;;35.47;18.70;;;;;;;;;;4995496;28;20530;-76
2022/04/15 07:47:16;;;;;;;37.33;19.98;;;;;;;;;;4993435;28;20046;-75
2022/04/15 07:49:42;;;;;;;34.22;18.88;;;;;;;;;;4995176;28;20037;-75
2022/04/15 07:52:08;;;;;;;35.63;19.20;;;;;;;;;;4996303;28;20030;-75
2022/04/15 07:54:34;;;;;;;34.28;20.00;;;;;;;;;;4996408;28;20050;-77
2022/04/15 07:57:01;;;;;;;36.88;20.30;;;;;;;;;;4994700;28;20030;-76
2022/04/15 07:59:27;;;;;;;36.50;19.80;;;;;;;;;;4995151;28;20034;-77
2022/04/15 08:01:53;;;;;;;36.55;19.67;;;;;;;;;;4998898;28;20034;-77
2022/04/15 08:04:20;;;;;;;33.38;19.30;;;;;;;;;;5004152;28;20027;-78
2022/04/15 08:06:46;;;;;;;35.88;19.83;;;;;;;;;;4998379;28;20073;-79
2022/04/15 08:09:12;;;;;;;35.38;20.00;;;;;;;;;;5005500;28;20035;-77
2022/04/15 08:11:38;;;;;;;35.72;19.42;;;;;;;;;;5011116;28;20030;-76
2022/04/15 08:14:04;;;;;;;34.85;19.83;;;;;;;;;;5003381;28;20041;-77
2022/04/15 08:16:30;;;;;;;35.97;19.92;;;;;;;;;;5010930;28;20034;-77
2022/04/15 08:18:56;;;;;;;34.58;19.15;;;;;;;;;;5008784;28;20074;-78
2022/04/15 08:21:23;;;;;;;33.88;19.90;;;;;;;;;;5027336;28;20055;-75
2022/04/15 08:23:49;;;;;;;35.95;19.60;;;;;;;;;;5024788;28;20061;-77
2022/04/15 08:26:15;;;;;;;37.67;21.13;;;;;;;;;;5022386;28;20033;-78
2022/04/15 08:28:41;;;;;;;35.55;20.90;;;;;;;;;;5025676;28;20034;-78
2022/04/15 08:31:08;;;;;;;40.08;21.25;;;;;;;;;;5019424;28;20113;-79
2022/04/15 08:33:35;;;;;;;39.20;21.88;;;;;;;;;;5027102;28;20026;-76
2022/04/15 08:36:01;;;;;;;34.33;20.38;;;;;;;;;;5021244;28;20118;-77
2022/04/15 08:38:27;;;;;;;38.92;21.70;;;;;;;;;;5019100;28;20032;-76
2022/04/15 08:40:56;;;;;;;37.10;21.80;;;;;;;;;;5019455;28;20032;-76
2022/04/15 08:43:22;;;;;;;35.92;20.63;;;;;;;;;;5017053;28;20022;-77
2022/04/15 08:45:48;;;;;;;38.88;22.58;;;;;;;;;;5017022;28;20034;-76
2022/04/15 08:48:15;;;;;;;38.13;21.08;;;;;;;;;;5016381;28;20033;-77
2022/04/15 08:50:41;;;;;;;37.58;21.92;;;;;;;;;;5016496;28;20112;-77
2022/04/15 08:53:08;;;;;;;39.65;21.67;;;;;;;;;;5024489;28;20029;-76
2022/04/15 08:55:34;;;;;;;40.85;21.08;;;;;;;;;;5016757;28;20026;-76
2022/04/15 08:58:00;;;;;;;40.05;24.17;;;;;;;;;;5018258;28;20045;-77
2022/04/15 09:00:27;;;;;;;40.20;22.05;;;;;;;;;;5016240;28;20490;-75
2022/04/15 09:02:54;;;;;;;37.92;21.83;;;;;;;;;;5015181;28;20024;-74
2022/04/15 09:05:24;;;;;;;41.13;23.35;;;;;;;;;;5015414;28;20053;-75
2022/04/15 09:08:01;;;;;;;41.88;22.67;;;;;;;;;;5017556;28;20105;-75
2022/04/15 09:10:26;;;;;;;37.85;22.10;;;;;;;;;;5018275;28;20387;-75
2022/04/15 09:12:52;;;;;;;43.97;22.80;;;;;;;;;;5016845;28;20033;-78
2022/04/15 09:15:18;;;;;;;39.05;22.35;;;;;;;;;;5017650;28;20193;-77
2022/04/15 09:17:52;;;;;;;42.15;21.63;;;;;;;;;;5019228;28;20026;-77
2022/04/15 09:20:19;;;;;;;39.10;21.45;;;;;;;;;;5020177;28;20025;-78
2022/04/15 09:22:46;;;;;;;39.05;21.27;;;;;;;;;;5017984;28;20026;-75
2022/04/15 09:25:13;;;;;;;42.22;22.10;;;;;;;;;;5018032;28;20092;-77
2022/04/15 09:27:40;;;;;;;39.60;22.85;;;;;;;;;;5019518;28;20030;-78
2022/04/15 09:30:06;;;;;;;38.80;22.60;;;;;;;;;;5017842;28;20104;-78
2022/04/15 09:32:32;;;;;;;42.53;23.35;;;;;;;;;;5020347;28;20029;-79
2022/04/15 09:35:05;;;;;;;40.85;22.08;;;;;;;;;;5017609;28;20036;-76
2022/04/15 09:37:32;;;;;;;42.45;23.35;;;;;;;;;;5017202;28;20041;-77
2022/04/15 09:40:15;;;;;;;46.38;22.52;;;;;;;;;;5019119;28;20372;-78
2022/04/15 09:42:45;;;;;;;39.22;21.73;;;;;;;;;;5016136;28;20030;-75
2022/04/15 09:45:16;;;;;;;43.65;22.35;;;;;;;;;;5017137;28;20018;-76
2022/04/15 09:47:42;;;;;;;42.17;21.50;;;;;;;;;;5017571;28;20029;-76
2022/04/15 09:50:20;;;;;;;42.10;22.92;;;;;;;;;;5016316;28;20026;-75
2022/04/15 09:52:46;;;;;;;37.65;21.05;;;;;;;;;;5015814;28;20033;-77
2022/04/15 09:55:13;;;;;;;42.90;21.02;;;;;;;;;;5015334;28;20088;-76
2022/04/15 09:57:39;;;;;;;42.30;21.73;;;;;;;;;;5015880;28;20088;-76
2022/04/15 10:00:10;;;;;;;38.75;21.13;;;;;;;;;;5019537;28;20030;-76
2022/04/15 10:02:37;;;;;;;41.25;22.40;;;;;;;;;;5016711;28;20028;-76
2022/04/15 10:05:04;;;;;;;41.33;22.50;;;;;;;;;;5015162;28;20030;-76
2022/04/15 10:07:30;;;;;;;42.70;22.88;;;;;;;;;;5014520;28;20022;-76
2022/04/15 10:09:58;;;;;;;43.83;22.58;;;;;;;;;;5015262;28;20110;-75
2022/04/15 10:12:24;;;;;;;37.60;21.38;;;;;;;;;;5014363;28;20037;-75
2022/04/15 10:14:51;;;;;;;41.58;21.55;;;;;;;;;;5015539;28;20038;-77
2022/04/15 10:17:20;;;;;;;43.17;21.58;;;;;;;;;;5015380;28;20034;-79
2022/04/15 10:19:46;;;;;;;36.13;20.73;;;;;;;;;;5015404;28;20018;-75
2022/04/15 10:22:11;;;;;;;38.42;21.15;;;;;;;;;;5016550;28;20084;-76
2022/04/15 10:24:37;;;;;;;39.75;20.85;;;;;;;;;;5016705;28;20057;-74
2022/04/15 10:27:04;;;;;;;39.55;20.88;;;;;;;;;;5012675;28;20395;-75
2022/04/15 10:29:30;;;;;;;35.72;20.05;;;;;;;;;;5010840;28;20026;-77
2022/04/15 10:31:57;;;;;;;37.92;20.77;;;;;;;;;;5008678;28;20048;-76
2022/04/15 10:34:23;;;;;;;37.03;20.13;;;;;;;;;;5010022;28;20026;-75
2022/04/15 10:36:50;;;;;;;49.00;24.92;;;;;;;;;;5010213;28;20029;-77
2022/04/15 10:39:17;;;;;;;45.80;21.48;;;;;;;;;;5008691;28;20386;-76
2022/04/15 10:41:43;;;;;;;41.85;20.98;;;;;;;;;;5011467;28;20036;-75
2022/04/15 10:44:14;;;;;;;40.58;21.15;;;;;;;;;;5012099;28;20108;-76
2022/04/15 10:46:40;;;;;;;37.80;19.92;;;;;;;;;;5005589;28;20021;-75
2022/04/15 10:49:23;;;;;;;42.72;22.10;;;;;;;;;;4999350;28;20034;-75
2022/04/15 10:51:54;;;;;;;41.05;20.50;;;;;;;;;;5001245;28;20032;-76
2022/04/15 10:54:35;;;;;;;40.72;20.23;;;;;;;;;;5001642;28;20487;-75
2022/04/15 10:57:03;;;;;;;39.05;21.05;;;;;;;;;;5001685;28;20084;-76
2022/04/15 11:02:18;;;;;;;40.95;21.50;;;;;;;;;;4999379;28;20372;-74
2022/04/15 11:04:47;;;;;;;45.55;21.55;;;;;;;;;;5007924;28;20033;-75
2022/04/15 11:07:15;;;;;;;45.65;21.80;;;;;;;;;;5000641;28;20451;-76
2022/04/15 11:09:41;;;;;;;39.75;20.75;;;;;;;;;;4995336;28;20404;-75
2022/04/15 11:12:06;;;;;;;38.35;19.45;;;;;;;;;;5001176;28;20025;-75
2022/04/15 11:14:38;;;;;;;39.72;20.13;;;;;;;;;;5007005;28;20064;-76
2022/04/15 11:17:09;;;;;;;44.85;20.42;;;;;;;;;;5012826;28;20084;-75
2022/04/15 11:19:36;;;;;;;43.05;19.38;;;;;;;;;;5015323;28;20383;-73
2022/04/15 11:22:02;;;;;;;41.42;18.48;;;;;;;;;;5017882;28;20049;-76
2022/04/15 11:24:30;;;;;;;38.20;18.48;;;;;;;;;;5016827;28;20022;-75
2022/04/15 11:27:01;;;;;;;40.17;19.45;;;;;;;;;;5014807;28;20029;-76
2022/04/15 11:29:31;;;;;;;35.22;17.73;;;;;;;;;;5014214;28;20026;-76
2022/04/15 11:31:58;;;;;;;37.15;18.00;;;;;;;;;;5016571;28;20025;-76
2022/04/15 11:34:24;;;;;;;38.25;18.48;;;;;;;;;;5015137;28;20056;-77
2022/04/15 11:36:53;;;;;;;38.50;18.45;;;;;;;;;;5006993;28;20025;-76
2022/04/15 11:39:21;;;;;;;39.25;18.08;;;;;;;;;;5011811;28;20407;-74
2022/04/15 11:41:49;;;;;;;33.90;17.48;;;;;;;;;;5005389;28;20030;-75
2022/04/15 11:44:16;;;;;;;35.40;17.88;;;;;;;;;;5015970;28;20013;-75
2022/04/15 11:46:43;;;;;;;33.28;17.38;;;;;;;;;;5015716;28;20017;-76
2022/04/15 11:49:23;;;;;;;36.38;18.33;;;;;;;;;;5015746;28;20034;-75
2022/04/15 11:51:50;;;;;;;35.22;17.42;;;;;;;;;;5006131;28;20102;-75
2022/04/15 11:54:16;;;;;;;32.95;16.90;;;;;;;;;;5012413;28;20156;-76
2022/04/15 11:56:42;;;;;;;32.50;16.88;;;;;;;;;;5011813;28;20057;-74
2022/04/15 11:59:09;;;;;;;36.80;17.75;;;;;;;;;;5008581;28;20460;-74
2022/04/15 12:01:35;;;;;;;35.95;17.33;;;;;;;;;;5008204;28;20042;-74
2022/04/15 12:04:01;;;;;;;36.55;16.85;;;;;;;;;;5013305;28;20014;-75
2022/04/15 12:06:29;;;;;;;32.20;15.52;;;;;;;;;;5018500;28;20037;-75
2022/04/15 12:08:57;;;;;;;31.30;15.27;;;;;;;;;;5021073;28;20459;-75
2022/04/15 12:11:24;;;;;;;31.65;16.60;;;;;;;;;;5016898;28;20010;-77
2022/04/15 12:13:58;;;;;;;31.42;14.77;;;;;;;;;;5019489;28;20034;-76
2022/04/15 12:16:24;;;;;;;28.70;14.95;;;;;;;;;;5010388;28;20112;-76
2022/04/15 12:18:51;;;;;;;29.75;14.90;;;;;;;;;;5006852;28;20033;-77
2022/04/15 12:21:17;;;;;;;32.30;15.10;;;;;;;;;;5018317;28;20500;-75
2022/04/15 12:24:02;;;;;;;30.13;15.27;;;;;;;;;;5012663;28;20027;-77
2022/04/15 12:26:28;;;;;;;30.02;15.88;;;;;;;;;;5001318;28;20450;-76
2022/04/15 12:31:47;;;;;;;28.15;14.68;;;;;;;;;;4997969;28;20450;-76
2022/04/15 12:34:14;;;;;;;32.15;15.23;;;;;;;;;;4997076;28;20486;-75
2022/04/15 12:36:41;;;;;;;33.85;15.82;;;;;;;;;;4997653;28;20110;-77
2022/04/15 12:39:07;;;;;;;32.10;14.68;;;;;;;;;;4997527;28;20069;-77
2022/04/15 12:41:37;;;;;;;26.95;14.15;;;;;;;;;;4996084;28;20022;-74
2022/04/15 12:44:16;;;;;;;25.65;12.60;;;;;;;;;;4997293;28;20077;-76
2022/04/15 12:46:46;;;;;;;16.50;10.27;;;;;;;;;;4995683;28;20121;-75
2022/04/15 12:49:26;;;;;;;17.05;10.43;;;;;;;;;;4998123;28;20026;-77
2022/04/15 12:51:52;;;;;;;18.55;11.07;;;;;;;;;;4997169;28;20026;-77
2022/04/15 12:54:18;;;;;;;18.20;10.18;;;;;;;;;;4997209;28;20104;-76
2022/04/15 12:56:57;;;;;;;19.83;10.27;;;;;;;;;;4996250;28;20034;-76
2022/04/15 12:59:23;;;;;;;21.65;11.82;;;;;;;;;;4996751;28;20153;-74
2022/04/15 13:01:49;;;;;;;20.45;12.15;;;;;;;;;;4996777;28;20101;-78
2022/04/15 13:04:16;;;;;;;20.00;11.38;;;;;;;;;;4998363;28;20019;-75
2022/04/15 13:06:42;;;;;;;24.20;11.98;;;;;;;;;;5002909;28;20121;-75
2022/04/15 13:09:08;;;;;;;22.92;12.65;;;;;;;;;;5005798;28;20092;-75
2022/04/15 13:11:34;;;;;;;20.98;12.57;;;;;;;;;;4998728;28;20634;-78
2022/04/15 13:14:01;;;;;;;23.38;12.77;;;;;;;;;;4997456;28;20034;-77
2022/04/15 13:16:27;;;;;;;27.17;13.10;;;;;;;;;;4996895;28;20563;-77
2022/04/15 13:18:54;;;;;;;22.75;13.25;;;;;;;;;;4995172;28;20046;-79
2022/04/15 13:21:20;;;;;;;21.58;12.50;;;;;;;;;;4998303;28;20018;-76
2022/04/15 13:23:47;;;;;;;22.63;12.18;;;;;;;;;;4999260;28;20365;-76
2022/04/15 13:26:13;;;;;;;23.80;12.32;;;;;;;;;;5000498;28;20023;-78
2022/04/15 13:28:41;;;;;;;20.60;11.75;;;;;;;;;;4998488;28;20035;-77
2022/04/15 13:31:08;;;;;;;21.40;12.10;;;;;;;;;;4998071;28;20037;-75
2022/04/15 13:33:34;;;;;;;21.58;11.48;;;;;;;;;;4997236;28;20100;-74
2022/04/15 13:36:01;;;;;;;23.60;11.75;;;;;;;;;;4996310;28;20121;-75
2022/04/15 13:38:27;;;;;;;20.35;11.85;;;;;;;;;;4996511;28;20026;-76
2022/04/15 13:40:53;;;;;;;19.63;10.57;;;;;;;;;;4998186;28;20369;-78
2022/04/15 13:43:19;;;;;;;22.25;11.65;;;;;;;;;;4998212;28;20026;-75
2022/04/15 13:45:45;;;;;;;21.73;11.85;;;;;;;;;;4996638;28;20089;-75
2022/04/15 13:48:11;;;;;;;21.08;11.85;;;;;;;;;;4997592;28;20380;-79
2022/04/15 13:50:37;;;;;;;20.80;12.05;;;;;;;;;;4995533;28;20050;-76
2022/04/15 13:58:33;;;;;;;27.67;12.90;;;;;;;;;;4998402;28;19913;-77
2022/04/15 14:00:59;;;;;;;24.85;12.38;;;;;;;;;;4996773;28;20019;-75
2022/04/15 14:03:24;;;;;;;25.17;12.07;;;;;;;;;;4998073;28;20058;-76
2022/04/15 14:05:50;;;;;;;26.55;11.90;;;;;;;;;;4996068;28;20037;-76
2022/04/15 14:08:17;;;;;;;18.88;10.88;;;;;;;;;;4997091;28;20094;-75
2022/04/15 14:10:43;;;;;;;22.67;11.95;;;;;;;;;;4996447;28;20033;-77
2022/04/15 14:13:10;;;;;;;21.75;11.43;;;;;;;;;;4996574;28;20042;-78
2022/04/15 14:15:36;;;;;;;20.45;11.15;;;;;;;;;;4995548;28;20471;-77
2022/04/15 14:18:04;;;;;;;24.02;11.05;;;;;;;;;;4995351;28;20022;-77
2022/04/15 14:20:30;;;;;;;22.90;11.57;;;;;;;;;;4996817;28;20050;-76
2022/04/15 14:22:56;;;;;;;24.23;11.20;;;;;;;;;;4996425;28;20101;-78
2022/04/15 14:25:22;;;;;;;23.42;11.35;;;;;;;;;;4997592;28;20522;-76
2022/04/15 14:27:48;;;;;;;23.48;11.10;;;;;;;;;;4996130;28;20033;-76